Řízení letového provozu České republiky
Letiste: LKPD Aktualizace: 27.05.2018 00:01:07  UTC
 METAR LKPD 27.05. 00:00 ...
METAR LKPD 270000Z VRB02KT CAVOK 14/09 Q1021 RMK BLU=
 TAF LKPD 26.05. 23:00 ...
TAF LKPD 262300Z 2700/2800 VRB02KT CAVOK      BECMG 2705/2707 10006KT      TEMPO 2709/2715 SCT045TCU=